Time;durP1;ratioP1;P1;durP2;ratioP2;P2;SDS_P1;SDS_P2;PMS_P1;PMS_P2;Temp;Humidity;BMP_temperature;BMP_pressure;BME280_temperature;BME280_humidity;BME280_pressure;Samples;Min_cycle;Max_cycle;Signal;HPM_P1;HPM_P2
2022/10/11 00:00:51;;;;;;;13.48;8.43;;;;;;;;;;4919690;29;20024;-83
2022/10/11 00:03:17;;;;;;;11.68;7.80;;;;;;;;;;4919107;29;20032;-76
2022/10/11 00:05:43;;;;;;;15.07;8.15;;;;;;;;;;4936377;29;20412;-84
2022/10/11 00:08:10;;;;;;;12.93;8.40;;;;;;;;;;4919621;29;20039;-84
2022/10/11 00:10:36;;;;;;;10.90;7.63;;;;;;;;;;4919538;29;20024;-77
2022/10/11 00:13:02;;;;;;;10.52;7.63;;;;;;;;;;4919577;29;20039;-83
2022/10/11 00:15:28;;;;;;;12.38;8.25;;;;;;;;;;4936520;29;20036;-84
2022/10/11 00:17:55;;;;;;;14.40;8.48;;;;;;;;;;4919454;29;20027;-84
2022/10/11 00:20:21;;;;;;;13.05;8.52;;;;;;;;;;4919614;29;20024;-84
2022/10/11 00:22:48;;;;;;;13.05;7.95;;;;;;;;;;4919377;29;20485;-84
2022/10/11 00:25:14;;;;;;;15.23;8.60;;;;;;;;;;4919536;29;20034;-83
2022/10/11 00:27:41;;;;;;;11.27;7.82;;;;;;;;;;4919455;29;20125;-77
2022/10/11 00:30:07;;;;;;;13.25;8.27;;;;;;;;;;4919160;29;20465;-84
2022/10/11 00:32:34;;;;;;;14.68;8.43;;;;;;;;;;4919301;29;20058;-78
2022/10/11 00:35:05;;;;;;;14.18;8.27;;;;;;;;;;4919210;29;20131;-84
2022/10/11 00:37:31;;;;;;;10.52;7.05;;;;;;;;;;4919018;29;20035;-84
2022/10/11 00:39:57;;;;;;;11.75;7.78;;;;;;;;;;4918755;29;20032;-76
2022/10/11 00:42:23;;;;;;;10.82;7.30;;;;;;;;;;4919156;29;20119;-84
2022/10/11 00:44:50;;;;;;;11.88;7.50;;;;;;;;;;4918860;29;20032;-78
2022/10/11 00:47:17;;;;;;;13.30;7.82;;;;;;;;;;4919367;29;20543;-76
2022/10/11 00:49:46;;;;;;;11.23;7.65;;;;;;;;;;4919083;29;20020;-83
2022/10/11 00:52:30;;;;;;;11.90;7.60;;;;;;;;;;4919036;29;20035;-77
2022/10/11 00:54:56;;;;;;;11.20;7.47;;;;;;;;;;4919430;29;20413;-85
2022/10/11 00:57:24;;;;;;;13.13;7.90;;;;;;;;;;4920593;29;20036;-84
2022/10/11 00:59:52;;;;;;;11.93;8.20;;;;;;;;;;4939811;29;20023;-83
2022/10/11 01:02:19;;;;;;;13.38;7.80;;;;;;;;;;4922346;29;20044;-83
2022/10/11 01:04:45;;;;;;;9.93;7.25;;;;;;;;;;4922539;29;20059;-84
2022/10/11 01:07:11;;;;;;;9.80;6.68;;;;;;;;;;4922090;29;20055;-77
2022/10/11 01:09:37;;;;;;;10.85;6.95;;;;;;;;;;4922377;29;20031;-83
2022/10/11 01:12:06;;;;;;;10.07;6.95;;;;;;;;;;4922401;29;20035;-76
2022/10/11 01:15:05;;;;;;;10.75;7.05;;;;;;;;;;4922039;29;20120;-77
2022/10/11 01:17:35;;;;;;;12.52;7.63;;;;;;;;;;4897013;29;20130;-83
2022/10/11 01:20:20;;;;;;;10.30;6.47;;;;;;;;;;4922195;29;20473;-83
2022/10/11 01:22:46;;;;;;;16.13;7.68;;;;;;;;;;4939109;29;20477;-82
2022/10/11 01:25:18;;;;;;;12.50;6.90;;;;;;;;;;4922044;29;20031;-75
2022/10/11 01:27:53;;;;;;;12.88;6.65;;;;;;;;;;4921744;29;20148;-77
2022/10/11 01:30:25;;;;;;;10.00;6.25;;;;;;;;;;4921814;29;20043;-84
2022/10/11 01:32:57;;;;;;;12.13;7.03;;;;;;;;;;4921921;29;20048;-78
2022/10/11 01:35:27;;;;;;;10.65;7.15;;;;;;;;;;4921891;29;20067;-84
2022/10/11 01:38:07;;;;;;;12.60;6.63;;;;;;;;;;4921951;29;20118;-84
2022/10/11 01:40:39;;;;;;;9.63;6.43;;;;;;;;;;4922001;29;20488;-84
2022/10/11 01:43:06;;;;;;;12.70;7.45;;;;;;;;;;4921855;29;20473;-84
2022/10/11 01:45:33;;;;;;;11.38;6.93;;;;;;;;;;4921717;29;20417;-83
2022/10/11 01:48:03;;;;;;;9.40;6.20;;;;;;;;;;4938682;29;20027;-83
2022/10/11 01:50:35;;;;;;;10.55;7.25;;;;;;;;;;4921681;29;20028;-82
2022/10/11 01:53:09;;;;;;;10.10;6.43;;;;;;;;;;4921734;29;20036;-83
2022/10/11 01:55:50;;;;;;;12.23;7.50;;;;;;;;;;4921476;29;20035;-84
2022/10/11 01:58:42;;;;;;;10.25;6.93;;;;;;;;;;4921673;29;20089;-84
2022/10/11 02:01:32;;;;;;;10.80;6.18;;;;;;;;;;4908750;29;20044;-77
2022/10/11 02:04:05;;;;;;;10.60;7.05;;;;;;;;;;4921423;29;20563;-77
2022/10/11 02:06:49;;;;;;;11.10;6.20;;;;;;;;;;4921419;29;20055;-77
2022/10/11 02:09:19;;;;;;;9.20;6.43;;;;;;;;;;4921129;29;20055;-84
2022/10/11 02:11:45;;;;;;;9.10;6.50;;;;;;;;;;4921164;29;20130;-83
2022/10/11 02:14:11;;;;;;;12.60;7.13;;;;;;;;;;4921078;29;20083;-77
2022/10/11 02:16:40;;;;;;;9.90;6.88;;;;;;;;;;4938337;29;20043;-83
2022/10/11 02:19:06;;;;;;;11.27;6.50;;;;;;;;;;4938406;29;20035;-77
2022/10/11 02:21:33;;;;;;;10.32;7.10;;;;;;;;;;4920959;29;20027;-83
2022/10/11 02:24:03;;;;;;;9.75;6.65;;;;;;;;;;4920935;29;20043;-77
2022/10/11 02:26:31;;;;;;;10.43;6.82;;;;;;;;;;4920779;29;20023;-75
2022/10/11 02:29:00;;;;;;;11.18;6.80;;;;;;;;;;4921019;29;20028;-84
2022/10/11 02:31:26;;;;;;;11.13;7.10;;;;;;;;;;4920650;29;20062;-82
2022/10/11 02:34:05;;;;;;;9.48;6.28;;;;;;;;;;4920727;29;20036;-76
2022/10/11 02:36:39;;;;;;;12.30;6.68;;;;;;;;;;4937968;29;20028;-77
2022/10/11 02:39:09;;;;;;;10.70;5.90;;;;;;;;;;4920855;29;20031;-83
2022/10/11 02:41:38;;;;;;;10.38;6.97;;;;;;;;;;4920757;29;20108;-82
2022/10/11 02:44:16;;;;;;;8.48;5.90;;;;;;;;;;4937648;29;20055;-77
2022/10/11 02:46:43;;;;;;;8.77;6.82;;;;;;;;;;4920704;29;20024;-82
2022/10/11 02:49:10;;;;;;;10.55;6.93;;;;;;;;;;4920435;29;20039;-84
2022/10/11 02:51:36;;;;;;;13.10;7.40;;;;;;;;;;4920773;29;20032;-84
2022/10/11 02:54:02;;;;;;;15.20;9.13;;;;;;;;;;4920558;29;20543;-84
2022/10/11 02:56:28;;;;;;;15.25;9.27;;;;;;;;;;4937909;29;20032;-77
2022/10/11 02:58:54;;;;;;;16.38;9.02;;;;;;;;;;4937608;29;20024;-76
2022/10/11 03:01:20;;;;;;;14.52;8.50;;;;;;;;;;4920504;29;20122;-84
2022/10/11 03:03:46;;;;;;;11.88;7.60;;;;;;;;;;4920406;29;20024;-82
2022/10/11 03:06:12;;;;;;;15.40;8.63;;;;;;;;;;4920091;29;20047;-79
2022/10/11 03:08:39;;;;;;;12.95;7.63;;;;;;;;;;4919927;29;20062;-78
2022/10/11 03:11:06;;;;;;;13.60;8.13;;;;;;;;;;4920008;29;20378;-76
2022/10/11 03:13:33;;;;;;;11.75;7.80;;;;;;;;;;4919574;29;20035;-83
2022/10/11 03:15:59;;;;;;;12.88;6.80;;;;;;;;;;4919742;29;20397;-85
2022/10/11 03:18:25;;;;;;;11.82;8.02;;;;;;;;;;4919992;29;20445;-84
2022/10/11 03:20:51;;;;;;;12.07;7.97;;;;;;;;;;4919382;29;20397;-84
2022/10/11 03:23:17;;;;;;;11.30;7.68;;;;;;;;;;4919906;29;20122;-82
2022/10/11 03:25:45;;;;;;;12.60;7.43;;;;;;;;;;4936923;29;20028;-77
2022/10/11 03:28:11;;;;;;;16.95;8.82;;;;;;;;;;4919820;29;20034;-81
2022/10/11 03:30:37;;;;;;;12.27;7.75;;;;;;;;;;4919703;29;20028;-82
2022/10/11 03:33:03;;;;;;;11.30;7.50;;;;;;;;;;4919457;29;20043;-82
2022/10/11 03:35:29;;;;;;;12.00;7.35;;;;;;;;;;4936727;29;20039;-83
2022/10/11 03:37:55;;;;;;;14.68;7.53;;;;;;;;;;4919860;29;20047;-85
2022/10/11 03:40:21;;;;;;;14.90;8.40;;;;;;;;;;4937505;29;20433;-85
2022/10/11 03:42:47;;;;;;;12.80;7.43;;;;;;;;;;4920031;29;20135;-83
2022/10/11 03:45:14;;;;;;;12.02;7.05;;;;;;;;;;4920069;29;20106;-81
2022/10/11 03:47:40;;;;;;;10.43;6.78;;;;;;;;;;4919792;29;20040;-83
2022/10/11 03:50:07;;;;;;;13.77;7.85;;;;;;;;;;4937774;29;20023;-78
2022/10/11 03:52:33;;;;;;;12.63;7.55;;;;;;;;;;4919754;29;20035;-83
2022/10/11 03:54:59;;;;;;;12.55;7.32;;;;;;;;;;4936982;29;20481;-83
2022/10/11 03:57:26;;;;;;;9.52;6.93;;;;;;;;;;4919526;29;20039;-77
2022/10/11 03:59:52;;;;;;;10.15;6.72;;;;;;;;;;4936371;29;20028;-85
2022/10/11 04:02:18;;;;;;;12.75;7.88;;;;;;;;;;4919460;29;20028;-83
2022/10/11 04:04:44;;;;;;;10.55;6.55;;;;;;;;;;4919481;29;20111;-84
2022/10/11 04:07:10;;;;;;;18.60;6.93;;;;;;;;;;4918713;29;20130;-78
2022/10/11 04:09:37;;;;;;;13.75;7.03;;;;;;;;;;4918912;29;20174;-75
2022/10/11 04:12:03;;;;;;;11.40;6.97;;;;;;;;;;4935459;29;20036;-76
2022/10/11 04:14:29;;;;;;;10.40;6.40;;;;;;;;;;4918481;29;20118;-78
2022/10/11 04:16:55;;;;;;;12.70;6.63;;;;;;;;;;4918205;29;20031;-79
2022/10/11 04:19:21;;;;;;;13.65;6.55;;;;;;;;;;4918591;29;20397;-84
2022/10/11 04:21:48;;;;;;;10.52;6.80;;;;;;;;;;4918636;29;20031;-78
2022/10/11 04:24:14;;;;;;;13.40;6.75;;;;;;;;;;4935867;29;20028;-77
2022/10/11 04:26:40;;;;;;;14.23;6.82;;;;;;;;;;4919018;29;20078;-78
2022/10/11 04:29:06;;;;;;;13.45;6.85;;;;;;;;;;4919033;29;20496;-78
2022/10/11 04:31:32;;;;;;;10.93;6.50;;;;;;;;;;4920470;29;20090;-81
2022/10/11 04:33:58;;;;;;;9.60;6.78;;;;;;;;;;4922603;29;20031;-77
2022/10/11 04:36:24;;;;;;;12.38;7.20;;;;;;;;;;4922622;29;20037;-76
2022/10/11 04:38:50;;;;;;;10.13;6.93;;;;;;;;;;4922282;29;20087;-76
2022/10/11 04:41:16;;;;;;;14.18;7.30;;;;;;;;;;4939481;29;20047;-77
2022/10/11 04:43:42;;;;;;;12.30;7.55;;;;;;;;;;4939243;29;20035;-77
2022/10/11 04:46:09;;;;;;;12.57;6.95;;;;;;;;;;4922325;29;20027;-78
2022/10/11 04:48:35;;;;;;;14.48;7.80;;;;;;;;;;4922278;29;20396;-78
2022/10/11 04:51:01;;;;;;;12.77;7.03;;;;;;;;;;4922152;29;20035;-77
2022/10/11 04:53:27;;;;;;;14.18;8.25;;;;;;;;;;4939231;29;20481;-77
2022/10/11 04:55:59;;;;;;;11.32;7.25;;;;;;;;;;4922046;29;20083;-76
2022/10/11 04:58:25;;;;;;;12.73;7.22;;;;;;;;;;4923739;29;20126;-84
2022/10/11 05:00:52;;;;;;;12.82;7.00;;;;;;;;;;4921819;29;20035;-76
2022/10/11 05:03:18;;;;;;;14.13;7.47;;;;;;;;;;4921688;29;20028;-76
2022/10/11 05:05:44;;;;;;;16.35;8.00;;;;;;;;;;4938446;29;20024;-77
2022/10/11 05:08:11;;;;;;;10.98;7.30;;;;;;;;;;4921635;29;20043;-76
2022/10/11 05:10:37;;;;;;;11.63;7.20;;;;;;;;;;4921743;29;20036;-76
2022/10/11 05:13:03;;;;;;;11.52;6.95;;;;;;;;;;4938208;29;20516;-76
2022/10/11 05:15:29;;;;;;;14.00;7.70;;;;;;;;;;4938530;29;20027;-77
2022/10/11 05:17:55;;;;;;;12.43;7.63;;;;;;;;;;4921489;29;20035;-76
2022/10/11 05:20:21;;;;;;;14.15;7.85;;;;;;;;;;4938639;29;20062;-78
2022/10/11 05:22:47;;;;;;;12.07;7.20;;;;;;;;;;4921276;29;20027;-78
2022/10/11 05:25:13;;;;;;;12.93;7.82;;;;;;;;;;4921234;29;20114;-76
2022/10/11 05:27:39;;;;;;;13.57;7.07;;;;;;;;;;4921301;29;20027;-78
2022/10/11 05:30:06;;;;;;;16.80;7.93;;;;;;;;;;4921283;29;20024;-76
2022/10/11 05:32:32;;;;;;;11.65;6.93;;;;;;;;;;4938327;29;20079;-82
2022/10/11 05:34:58;;;;;;;11.30;6.82;;;;;;;;;;4921262;29;20039;-76
2022/10/11 05:37:24;;;;;;;14.98;7.75;;;;;;;;;;4937984;29;20028;-75
2022/10/11 05:39:50;;;;;;;10.43;7.30;;;;;;;;;;4938315;29;20087;-78
2022/10/11 05:42:16;;;;;;;12.02;7.22;;;;;;;;;;4920855;29;20392;-77
2022/10/11 05:44:43;;;;;;;14.43;7.85;;;;;;;;;;4937816;29;20028;-78
2022/10/11 05:47:09;;;;;;;12.38;6.82;;;;;;;;;;4921102;29;20047;-82
2022/10/11 05:49:35;;;;;;;11.27;7.57;;;;;;;;;;4920881;29;20028;-80
2022/10/11 05:52:01;;;;;;;12.40;7.63;;;;;;;;;;4920078;29;20071;-78
2022/10/11 05:54:31;;;;;;;10.88;7.30;;;;;;;;;;4902074;29;20084;-82
2022/10/11 05:56:57;;;;;;;9.10;7.07;;;;;;;;;;4902154;29;20052;-78
2022/10/11 05:59:23;;;;;;;10.63;7.30;;;;;;;;;;4902095;29;20442;-79
2022/10/11 06:01:49;;;;;;;17.58;11.80;;;;;;;;;;4902191;29;20127;-83
2022/10/11 06:04:17;;;;;;;14.90;11.02;;;;;;;;;;4919069;29;20028;-77
2022/10/11 06:06:43;;;;;;;18.27;11.20;;;;;;;;;;4918820;29;20052;-81
2022/10/11 06:09:10;;;;;;;15.90;10.75;;;;;;;;;;4918864;29;20513;-84
2022/10/11 06:11:37;;;;;;;13.50;10.10;;;;;;;;;;4901795;29;20486;-77
2022/10/11 06:14:03;;;;;;;11.60;8.52;;;;;;;;;;4901344;29;20549;-78
2022/10/11 06:16:29;;;;;;;13.35;9.65;;;;;;;;;;4918811;29;20039;-76
2022/10/11 06:18:55;;;;;;;13.02;8.90;;;;;;;;;;4901597;29;20167;-78
2022/10/11 06:21:22;;;;;;;15.07;8.45;;;;;;;;;;4919872;29;20138;-82
2022/10/11 06:23:49;;;;;;;12.40;8.60;;;;;;;;;;4920808;29;20028;-79
2022/10/11 06:26:16;;;;;;;10.63;7.50;;;;;;;;;;4937414;29;20359;-77
2022/10/11 06:28:42;;;;;;;11.52;6.47;;;;;;;;;;4937126;29;20047;-77
2022/10/11 06:31:08;;;;;;;11.00;7.57;;;;;;;;;;4920370;29;20119;-77
2022/10/11 06:33:35;;;;;;;9.98;6.75;;;;;;;;;;4920155;29;20043;-75
2022/10/11 06:36:02;;;;;;;10.68;6.38;;;;;;;;;;4920135;29;20027;-77
2022/10/11 06:38:28;;;;;;;9.90;6.72;;;;;;;;;;4919951;29;20028;-77
2022/10/11 06:50:25;;;;;;;9.70;6.22;;;;;;;;;;4959955;29;20047;-92
2022/10/11 06:52:54;;;;;;;11.10;5.95;;;;;;;;;;4940370;29;20492;-96
2022/10/11 06:55:37;;;;;;;12.65;7.30;;;;;;;;;;4952790;29;20012;-91
2022/10/11 07:01:36;;;;;;;11.52;6.75;;;;;;;;;;4918035;29;20185;-93
2022/10/11 07:23:29;;;;;;;12.43;7.20;;;;;;;;;;5515806;23;20103;-90
2022/10/11 07:27:02;;;;;;;;;;;;;;;;;;;;;
2022/10/11 07:35:07;;;;;;;10.55;6.85;;;;;;;;;;4964894;28;20070;-94
2022/10/11 07:37:43;;;;;;;11.63;6.60;;;;;;;;;;4941680;29;20063;-96
2022/10/11 07:40:32;;;;;;;;;;;;;;;;;;;;;
2022/10/11 07:43:07;;;;;;;14.00;6.75;;;;;;;;;;4938567;29;20388;-93
2022/10/11 07:45:47;;;;;;;9.80;6.03;;;;;;;;;;4927967;29;20306;-96
2022/10/11 07:48:17;;;;;;;10.18;5.95;;;;;;;;;;4944316;29;20020;-92
2022/10/11 07:57:23;;;;;;;7.22;4.90;;;;;;;;;;4864609;29;20053;-96
2022/10/11 08:06:41;;;;;;;;;;;;;;;;;;;;;
2022/10/11 08:11:57;;;;;;;7.15;5.40;;;;;;;;;;5226076;23;20064;-91
2022/10/11 08:14:35;;;;;;;7.82;4.68;;;;;;;;;;4956351;29;20040;-96
2022/10/11 08:20:41;;;;;;;6.28;4.47;;;;;;;;;;5312752;23;20062;-92
2022/10/11 08:26:51;;;;;;;6.72;4.38;;;;;;;;;;4933207;29;20019;-95
2022/10/11 08:29:23;;;;;;;6.15;4.13;;;;;;;;;;4959685;28;20038;-94
2022/10/11 08:32:37;;;;;;;7.55;3.80;;;;;;;;;;4976564;28;20051;-91
2022/10/11 08:35:57;;;;;;;5.07;3.20;;;;;;;;;;5209400;23;20039;-90
2022/10/11 08:38:58;;;;;;;5.57;3.10;;;;;;;;;;4960591;29;20016;-89
2022/10/11 08:44:57;;;;;;;11.75;3.17;;;;;;;;;;4958292;29;20062;-96
2022/10/11 08:47:44;;;;;;;4.63;2.65;;;;;;;;;;4927014;29;20075;-96
2022/10/11 08:53:41;;;;;;;4.93;3.05;;;;;;;;;;4958902;29;20042;-92
2022/10/11 08:59:41;;;;;;;7.45;3.28;;;;;;;;;;4916016;29;20088;-96
2022/10/11 09:02:51;;;;;;;5.38;2.97;;;;;;;;;;4884915;29;20036;-92
2022/10/11 09:05:34;;;;;;;6.53;2.80;;;;;;;;;;5426544;23;20075;-90
2022/10/11 09:11:45;;;;;;;3.95;2.92;;;;;;;;;;4917518;29;20088;-96
2022/10/11 09:18:13;;;;;;;6.25;3.50;;;;;;;;;;4918630;29;20067;-90
2022/10/11 09:24:16;;;;;;;5.60;4.15;;;;;;;;;;5264376;23;20066;-95
2022/10/11 09:27:12;;;;;;;8.70;3.70;;;;;;;;;;4974050;29;20023;-94
2022/10/11 09:38:37;;;;;;;6.43;3.45;;;;;;;;;;4921534;29;20043;-96
2022/10/11 09:41:21;;;;;;;6.85;3.80;;;;;;;;;;4916366;29;20036;-90
2022/10/11 09:44:36;;;;;;;6.60;3.55;;;;;;;;;;4961688;23;20033;-91
2022/10/11 09:53:43;;;;;;;5.25;3.63;;;;;;;;;;4962178;29;20054;-92
2022/10/11 10:33:24;;;;;;;7.30;4.30;;;;;;;;;;4960685;29;20038;-91
2022/10/11 10:36:20;;;;;;;8.68;5.15;;;;;;;;;;4956579;29;20063;-95
2022/10/11 10:42:33;;;;;;;7.30;4.95;;;;;;;;;;5358490;23;20207;-94
2022/10/11 10:45:13;;;;;;;9.88;4.25;;;;;;;;;;4935389;29;20047;-93
2022/10/11 10:51:13;;;;;;;7.85;4.35;;;;;;;;;;4876367;29;20044;-95
2022/10/11 10:54:14;;;;;;;7.50;4.93;;;;;;;;;;4873758;29;20530;-93
2022/10/11 10:59:56;;;;;;;9.23;4.85;;;;;;;;;;4874933;29;20054;-95
2022/10/11 11:02:25;;;;;;;6.68;4.13;;;;;;;;;;4880251;29;20018;-94
2022/10/11 11:05:20;;;;;;;9.45;4.63;;;;;;;;;;4913532;29;20171;-96
2022/10/11 11:11:39;;;;;;;9.80;4.80;;;;;;;;;;4914398;29;20028;-95
2022/10/11 11:14:43;;;;;;;8.35;3.95;;;;;;;;;;4886969;29;20052;-93
2022/10/11 11:17:25;;;;;;;8.57;4.97;;;;;;;;;;4893376;29;20052;-96
2022/10/11 11:20:13;;;;;;;11.33;4.70;;;;;;;;;;4897577;29;20135;-95
2022/10/11 11:23:17;;;;;;;;;;;;;;;;;;;;;
2022/10/11 11:26:06;;;;;;;9.30;5.15;;;;;;;;;;5006246;23;20055;-93
2022/10/11 11:35:06;;;;;;;6.95;4.97;;;;;;;;;;4958342;29;20063;-92
2022/10/11 11:41:04;;;;;;;7.10;4.72;;;;;;;;;;5006334;23;20034;-92
2022/10/11 11:43:36;;;;;;;11.68;4.93;;;;;;;;;;4952651;29;20027;-96
2022/10/11 11:46:19;;;;;;;8.20;4.25;;;;;;;;;;4952214;29;20062;-93
2022/10/11 11:52:16;;;;;;;7.65;4.93;;;;;;;;;;4965624;28;20033;-96
2022/10/11 11:55:02;;;;;;;7.30;4.93;;;;;;;;;;4969137;29;20059;-94
2022/10/11 11:58:09;;;;;;;8.02;5.00;;;;;;;;;;4925082;29;20036;-96
2022/10/11 12:00:51;;;;;;;8.05;5.63;;;;;;;;;;4904585;29;20044;-96
2022/10/11 12:12:36;;;;;;;9.95;5.72;;;;;;;;;;4959741;29;20059;-90
2022/10/11 12:15:09;;;;;;;8.45;5.38;;;;;;;;;;4933192;29;20036;-93
2022/10/11 12:18:16;;;;;;;7.18;5.20;;;;;;;;;;4938558;29;20068;-95
2022/10/11 12:21:30;;;;;;;9.82;5.90;;;;;;;;;;4922123;29;20032;-92
2022/10/11 12:23:58;;;;;;;9.50;5.95;;;;;;;;;;4919098;29;20131;-93
2022/10/11 12:26:33;;;;;;;9.65;6.65;;;;;;;;;;4903700;29;20028;-95
2022/10/11 12:29:05;;;;;;;8.80;6.53;;;;;;;;;;4906317;29;20044;-95
2022/10/11 12:31:36;;;;;;;8.13;5.43;;;;;;;;;;4900911;29;20028;-94
2022/10/11 12:34:03;;;;;;;9.63;5.50;;;;;;;;;;4920095;29;20050;-95
2022/10/11 12:36:35;;;;;;;9.15;5.13;;;;;;;;;;4923078;29;20023;-95
2022/10/11 12:39:19;;;;;;;6.80;5.03;;;;;;;;;;4937263;29;20063;-90
2022/10/11 12:41:52;;;;;;;9.73;5.10;;;;;;;;;;4920363;29;20078;-95
2022/10/11 12:44:47;;;;;;;;;;;;;;;;;;;;;
2022/10/11 12:47:41;;;;;;;10.45;5.28;;;;;;;;;;4956787;29;20022;-94
2022/10/11 12:50:22;;;;;;;10.07;5.10;;;;;;;;;;4939005;29;20035;-92
2022/10/11 12:52:54;;;;;;;8.02;5.22;;;;;;;;;;4940827;29;20047;-92
2022/10/11 12:55:33;;;;;;;7.97;5.15;;;;;;;;;;4939784;29;20500;-92
2022/10/11 12:58:06;;;;;;;11.73;5.18;;;;;;;;;;4959932;29;20477;-91
2022/10/11 13:00:44;;;;;;;10.35;5.90;;;;;;;;;;4942494;29;20016;-91
2022/10/11 13:03:32;;;;;;;9.75;6.20;;;;;;;;;;4942570;29;20035;-92
2022/10/11 13:05:58;;;;;;;8.18;5.88;;;;;;;;;;4942826;29;20023;-92
2022/10/11 13:14:26;;;;;;;11.65;5.32;;;;;;;;;;4960964;29;20099;-94
2022/10/11 13:17:11;;;;;;;15.10;5.75;;;;;;;;;;4942972;29;20118;-91
2022/10/11 15:29:42;;;;;;;11.52;4.45;;;;;;;;;;6223357;22;2990802;-94
2022/10/11 15:34:53;;;;;;;13.82;4.18;;;;;;;;;;6319265;22;19933;-92
2022/10/11 15:37:23;;;;;;;8.43;4.10;;;;;;;;;;6290431;22;20082;-92
2022/10/11 15:40:07;;;;;;;6.00;4.35;;;;;;;;;;6288254;22;20337;-95
2022/10/11 15:42:33;;;;;;;11.10;4.47;;;;;;;;;;6286978;22;20011;-93
2022/10/11 15:44:59;;;;;;;8.40;4.53;;;;;;;;;;6284853;22;20078;-95
2022/10/11 15:47:25;;;;;;;10.35;4.68;;;;;;;;;;6286735;22;20042;-95
2022/10/11 15:53:39;;;;;;;13.80;4.55;;;;;;;;;;6304886;22;20018;-93
2022/10/11 15:59:27;;;;;;;14.68;6.30;;;;;;;;;;6244892;22;20501;-94
2022/10/11 16:01:56;;;;;;;19.77;8.30;;;;;;;;;;6309914;22;20007;-92
2022/10/11 16:04:34;;;;;;;21.17;8.10;;;;;;;;;;6283679;22;20093;-96
2022/10/11 16:15:51;;;;;;;16.13;5.90;;;;;;;;;;6277405;22;20028;-94
2022/10/11 16:24:42;;;;;;;;;;;;;;;;;;;;;
2022/10/11 16:33:18;;;;;;;11.85;5.45;;;;;;;;;;6134595;23;20001;-92
2022/10/11 16:38:53;;;;;;;9.65;5.57;;;;;;;;;;6292436;22;20014;-93
2022/10/11 16:44:38;;;;;;;10.38;6.43;;;;;;;;;;6273046;22;20000;-95
2022/10/11 16:50:06;;;;;;;19.33;5.88;;;;;;;;;;6230840;22;20030;-93
2022/10/11 16:52:35;;;;;;;21.40;8.18;;;;;;;;;;6259643;22;20106;-91
2022/10/11 17:00:13;;;;;;;12.13;5.93;;;;;;;;;;6265202;22;20019;-96
2022/10/11 17:03:16;;;;;;;11.40;5.63;;;;;;;;;;6294866;22;20003;-96
2022/10/11 17:06:01;;;;;;;9.98;5.15;;;;;;;;;;6307045;22;20034;-93
2022/10/11 17:26:04;;;;;;;8.77;5.10;;;;;;;;;;6297881;22;20076;-94
2022/10/11 17:31:13;;;;;;;8.00;4.57;;;;;;;;;;6296353;22;20023;-94
2022/10/11 17:33:53;;;;;;;8.88;5.38;;;;;;;;;;6206926;23;20016;-95
2022/10/11 17:36:43;;;;;;;10.65;6.07;;;;;;;;;;6198462;23;20350;-93
2022/10/11 17:41:57;;;;;;;13.77;5.68;;;;;;;;;;6347557;22;20030;-91
2022/10/11 17:50:09;;;;;;;11.82;6.55;;;;;;;;;;6286866;22;20026;-95
2022/10/11 17:52:55;;;;;;;10.32;7.10;;;;;;;;;;6285648;22;20334;-92
2022/10/11 17:55:21;;;;;;;13.85;7.55;;;;;;;;;;6284733;22;20015;-92
2022/10/11 17:58:08;;;;;;;10.70;6.50;;;;;;;;;;6263183;22;20008;-95
2022/10/11 18:00:35;;;;;;;11.00;5.80;;;;;;;;;;6285218;22;20019;-92
2022/10/11 18:03:01;;;;;;;9.55;6.15;;;;;;;;;;6287070;22;20421;-93
2022/10/11 18:15:15;;;;;;;13.73;6.78;;;;;;;;;;6199113;23;20069;-93
2022/10/11 18:17:46;;;;;;;12.63;6.60;;;;;;;;;;6173417;23;20092;-94
2022/10/11 18:20:15;;;;;;;17.35;8.52;;;;;;;;;;6290113;22;20067;-92
2022/10/11 18:22:41;;;;;;;19.85;8.82;;;;;;;;;;6252150;22;20082;-89
2022/10/11 18:25:08;;;;;;;15.32;7.97;;;;;;;;;;6252128;22;20007;-89
2022/10/11 18:27:34;;;;;;;16.20;8.35;;;;;;;;;;6252221;22;20449;-90
2022/10/11 18:30:00;;;;;;;14.15;7.40;;;;;;;;;;6251752;22;20484;-90
2022/10/11 18:32:29;;;;;;;14.70;7.05;;;;;;;;;;6251882;22;20008;-90
2022/10/11 18:34:58;;;;;;;11.50;6.95;;;;;;;;;;6251396;22;20026;-92
2022/10/11 18:37:24;;;;;;;11.27;6.72;;;;;;;;;;6252039;22;20011;-89
2022/10/11 18:40:00;;;;;;;12.13;6.60;;;;;;;;;;6251412;22;20106;-91
2022/10/11 18:42:26;;;;;;;13.27;7.00;;;;;;;;;;6251507;22;20038;-91
2022/10/11 18:44:53;;;;;;;8.68;5.00;;;;;;;;;;6251604;22;20000;-91
2022/10/11 18:47:19;;;;;;;15.60;6.03;;;;;;;;;;6277102;22;20007;-91
2022/10/11 18:49:47;;;;;;;10.95;6.45;;;;;;;;;;6269577;22;20030;-90
2022/10/11 18:52:13;;;;;;;10.30;6.13;;;;;;;;;;6309404;22;20018;-90
2022/10/11 18:54:39;;;;;;;13.45;6.43;;;;;;;;;;6309147;22;20011;-91
2022/10/11 18:57:05;;;;;;;8.88;5.28;;;;;;;;;;6309233;22;20007;-90
2022/10/11 18:59:32;;;;;;;14.30;6.20;;;;;;;;;;6308745;22;19995;-88
2022/10/11 19:01:58;;;;;;;9.65;6.05;;;;;;;;;;6308775;22;20417;-90
2022/10/11 19:04:24;;;;;;;10.73;5.88;;;;;;;;;;6309197;22;20030;-90
2022/10/11 19:06:51;;;;;;;10.65;6.20;;;;;;;;;;6308812;22;20003;-89
2022/10/11 19:09:40;;;;;;;15.32;6.47;;;;;;;;;;6308529;22;20152;-90
2022/10/11 19:15:10;;;;;;;14.75;7.20;;;;;;;;;;6310705;22;20328;-91
2022/10/11 19:17:46;;;;;;;18.85;7.53;;;;;;;;;;6288453;22;19999;-90
2022/10/11 19:20:12;;;;;;;14.60;6.40;;;;;;;;;;6283339;22;20004;-89
2022/10/11 19:22:39;;;;;;;17.05;7.50;;;;;;;;;;6283261;22;20013;-93
2022/10/11 19:25:12;;;;;;;24.30;9.63;;;;;;;;;;6283741;22;20306;-89
2022/10/11 19:27:38;;;;;;;19.83;9.02;;;;;;;;;;6281363;22;20468;-90
2022/10/11 19:30:05;;;;;;;14.38;6.47;;;;;;;;;;6282405;22;20010;-88
2022/10/11 19:32:31;;;;;;;13.35;6.95;;;;;;;;;;6282410;22;20035;-89
2022/10/11 19:34:57;;;;;;;15.70;7.95;;;;;;;;;;6282836;22;20048;-90
2022/10/11 19:37:41;;;;;;;15.93;7.68;;;;;;;;;;6282759;22;20087;-92
2022/10/11 19:40:07;;;;;;;14.90;8.07;;;;;;;;;;6283635;22;20004;-90
2022/10/11 19:42:33;;;;;;;13.55;7.35;;;;;;;;;;6282559;22;20031;-90
2022/10/11 19:45:07;;;;;;;17.27;7.53;;;;;;;;;;6281946;22;20045;-93
2022/10/11 19:47:36;;;;;;;16.63;7.82;;;;;;;;;;6282478;22;20432;-91
2022/10/11 19:50:02;;;;;;;12.15;7.00;;;;;;;;;;6282168;22;19999;-93
2022/10/11 19:52:28;;;;;;;13.43;6.72;;;;;;;;;;6282656;22;20091;-90
2022/10/11 19:54:54;;;;;;;14.57;7.63;;;;;;;;;;6282410;22;20045;-89
2022/10/11 19:57:31;;;;;;;19.40;7.95;;;;;;;;;;6282715;22;20010;-93
2022/10/11 19:59:57;;;;;;;28.00;7.40;;;;;;;;;;6282037;22;20368;-89
2022/10/11 20:02:23;;;;;;;17.80;6.65;;;;;;;;;;6282504;22;20011;-88
2022/10/11 20:05:26;;;;;;;12.63;6.20;;;;;;;;;;6282940;22;19999;-89
2022/10/11 20:07:52;;;;;;;10.73;5.68;;;;;;;;;;6282693;22;20007;-88
2022/10/11 20:10:18;;;;;;;11.07;6.38;;;;;;;;;;6294842;22;20011;-93
2022/10/11 20:12:53;;;;;;;9.48;5.38;;;;;;;;;;6310015;22;20015;-93
2022/10/11 20:15:25;;;;;;;12.43;5.63;;;;;;;;;;6308482;22;20054;-88
2022/10/11 20:18:13;;;;;;;11.68;5.80;;;;;;;;;;6308089;22;20007;-90
2022/10/11 20:20:38;;;;;;;11.18;6.70;;;;;;;;;;6308517;22;20403;-92
2022/10/11 20:23:04;;;;;;;15.18;6.82;;;;;;;;;;6308014;22;20306;-88
2022/10/11 20:25:30;;;;;;;11.27;6.90;;;;;;;;;;6307637;22;20003;-88
2022/10/11 20:28:02;;;;;;;13.43;7.00;;;;;;;;;;6307655;22;19999;-93
2022/10/11 20:31:13;;;;;;;13.25;5.90;;;;;;;;;;6306777;22;20012;-90
2022/10/11 20:33:45;;;;;;;8.80;5.85;;;;;;;;;;6282462;22;19999;-94
2022/10/11 20:36:16;;;;;;;12.33;6.53;;;;;;;;;;6307486;22;20003;-89
2022/10/11 20:38:46;;;;;;;11.00;6.38;;;;;;;;;;6307366;22;20011;-90
2022/10/11 20:41:13;;;;;;;8.30;5.43;;;;;;;;;;6307553;22;20010;-92
2022/10/11 20:43:50;;;;;;;11.38;6.05;;;;;;;;;;6307584;22;19999;-94
2022/10/11 20:46:20;;;;;;;12.23;7.35;;;;;;;;;;6307926;22;20007;-93
2022/10/11 20:49:00;;;;;;;15.77;6.47;;;;;;;;;;6307217;22;20007;-90
2022/10/11 20:51:33;;;;;;;14.27;6.43;;;;;;;;;;6307429;22;20047;-94
2022/10/11 20:54:13;;;;;;;14.10;7.68;;;;;;;;;;6307571;22;20452;-89
2022/10/11 20:56:39;;;;;;;13.32;7.57;;;;;;;;;;6307417;22;19999;-89
2022/10/11 20:59:05;;;;;;;15.02;7.28;;;;;;;;;;6307607;22;20031;-89
2022/10/11 21:01:36;;;;;;;14.98;7.57;;;;;;;;;;6307553;22;20397;-90
2022/10/11 21:04:06;;;;;;;11.57;7.65;;;;;;;;;;6308063;22;20003;-93
2022/10/11 21:06:38;;;;;;;16.02;8.40;;;;;;;;;;6307211;22;20014;-89
2022/10/11 21:09:04;;;;;;;14.18;7.90;;;;;;;;;;6307495;22;20058;-89
2022/10/11 21:11:32;;;;;;;24.42;8.68;;;;;;;;;;6281654;22;20011;-91
2022/10/11 21:13:59;;;;;;;15.48;9.48;;;;;;;;;;6281398;22;20010;-90
2022/10/11 21:16:26;;;;;;;22.13;9.15;;;;;;;;;;6281282;22;20038;-90
2022/10/11 21:19:11;;;;;;;14.88;8.50;;;;;;;;;;6281390;22;20007;-93
2022/10/11 21:21:37;;;;;;;14.73;7.38;;;;;;;;;;6281694;22;20003;-91
2022/10/11 21:24:03;;;;;;;15.57;8.40;;;;;;;;;;6281779;22;20007;-90
2022/10/11 21:26:30;;;;;;;15.18;8.02;;;;;;;;;;6281478;22;20030;-91
2022/10/11 21:29:08;;;;;;;13.77;7.70;;;;;;;;;;6281378;22;20004;-95
2022/10/11 21:31:34;;;;;;;13.48;7.60;;;;;;;;;;6281524;22;20456;-90
2022/10/11 21:34:00;;;;;;;16.60;7.75;;;;;;;;;;6281339;22;20003;-89
2022/10/11 21:36:38;;;;;;;14.43;7.93;;;;;;;;;;6281661;22;20011;-90
2022/10/11 21:39:04;;;;;;;16.30;7.72;;;;;;;;;;6281335;22;20451;-95
2022/10/11 21:41:32;;;;;;;15.00;8.35;;;;;;;;;;6281493;22;20405;-90